Time;durP1;ratioP1;P1;durP2;ratioP2;P2;SDS_P1;SDS_P2;PMS_P1;PMS_P2;Temp;Humidity;BMP_temperature;BMP_pressure;BME280_temperature;BME280_humidity;BME280_pressure;Samples;Min_cycle;Max_cycle;Signal;HPM_P1;HPM_P2
2023/08/24 00:03:09;;;;;;;15.35;12.70;;;17.90;99.90;;;;;;8426096;28;20040;-83
2023/08/24 00:07:10;;;;;;;16.85;12.00;;;17.90;99.90;;;;;;8395176;28;20515;-83
2023/08/24 00:11:14;;;;;;;15.18;12.60;;;17.80;99.90;;;;;;8421793;28;20055;-83
2023/08/24 00:15:15;;;;;;;14.57;13.07;;;17.70;99.90;;;;;;8400486;28;20024;-82
2023/08/24 00:19:15;;;;;;;12.60;10.90;;;17.70;99.90;;;;;;8404789;28;20472;-83
2023/08/24 00:23:16;;;;;;;16.85;12.88;;;17.70;99.90;;;;;;8413337;28;20373;-83
2023/08/24 00:27:17;;;;;;;15.80;12.55;;;17.70;99.90;;;;;;8403865;28;20496;-83
2023/08/24 00:31:17;;;;;;;16.92;13.75;;;17.70;99.90;;;;;;8402726;28;20062;-83
2023/08/24 00:35:18;;;;;;;17.35;12.98;;;17.60;99.90;;;;;;8410389;28;20052;-83
2023/08/24 00:39:19;;;;;;;15.50;13.05;;;17.60;99.90;;;;;;8422377;28;20050;-83
2023/08/24 00:43:23;;;;;;;16.88;12.80;;;17.50;99.90;;;;;;8418086;28;20078;-83
2023/08/24 00:47:24;;;;;;;16.92;12.63;;;17.40;99.90;;;;;;8382444;28;20020;-83
2023/08/24 00:51:25;;;;;;;20.80;13.55;;;17.40;99.90;;;;;;8392496;28;20028;-83
2023/08/24 00:55:26;;;;;;;16.92;13.05;;;17.30;99.90;;;;;;8403170;28;20027;-83
2023/08/24 00:59:27;;;;;;;15.90;10.40;;;17.30;99.90;;;;;;8426484;28;20069;-83
2023/08/24 01:03:27;;;;;;;18.67;13.18;;;17.30;99.90;;;;;;8422799;28;20458;-83
2023/08/24 01:07:28;;;;;;;18.60;14.57;;;17.30;99.90;;;;;;8399599;28;20536;-82
2023/08/24 01:11:31;;;;;;;17.10;14.30;;;17.20;99.90;;;;;;8407343;28;20111;-82
2023/08/24 01:15:42;;;;;;;19.20;13.30;;;17.10;99.90;;;;;;8392013;28;20071;-82
2023/08/24 01:19:44;;;;;;;18.98;14.43;;;17.00;99.90;;;;;;8404698;28;20032;-82
2023/08/24 01:23:55;;;;;;;21.42;15.95;;;17.00;99.90;;;;;;8420325;28;20028;-82
2023/08/24 01:27:57;;;;;;;18.30;15.18;;;17.00;99.90;;;;;;8414951;28;20040;-82
2023/08/24 01:31:57;;;;;;;18.67;14.48;;;17.00;99.90;;;;;;8401973;28;20097;-82
2023/08/24 01:35:58;;;;;;;19.27;14.50;;;17.00;99.90;;;;;;8414410;28;20029;-83
2023/08/24 01:40:11;;;;;;;21.20;16.15;;;16.90;99.90;;;;;;8426999;28;20032;-83
2023/08/24 01:44:14;;;;;;;18.40;14.80;;;16.80;99.90;;;;;;8417096;28;20442;-82
2023/08/24 01:48:15;;;;;;;19.65;14.32;;;16.80;99.90;;;;;;8410360;28;20403;-82
2023/08/24 01:52:17;;;;;;;20.58;14.77;;;16.80;99.90;;;;;;8407189;28;20047;-83
2023/08/24 01:56:17;;;;;;;21.17;16.83;;;16.70;99.90;;;;;;8393418;28;20023;-82
2023/08/24 02:00:18;;;;;;;21.88;18.13;;;16.70;99.90;;;;;;8402142;28;20024;-82
2023/08/24 02:04:19;;;;;;;19.40;15.30;;;16.70;99.90;;;;;;8403140;28;20435;-82
2023/08/24 02:08:19;;;;;;;21.33;15.73;;;16.70;99.90;;;;;;8422899;28;20074;-82
2023/08/24 02:12:20;;;;;;;19.05;15.18;;;16.70;99.90;;;;;;8396164;28;20027;-82
2023/08/24 02:16:20;;;;;;;19.10;14.68;;;16.70;99.90;;;;;;8423473;28;20024;-82
2023/08/24 02:20:21;;;;;;;21.17;15.82;;;16.60;99.90;;;;;;8394754;28;20016;-82
2023/08/24 02:24:21;;;;;;;18.45;14.32;;;16.60;99.90;;;;;;8398678;28;20038;-82
2023/08/24 02:28:22;;;;;;;20.40;16.02;;;16.70;99.90;;;;;;8396691;28;20024;-83
2023/08/24 02:32:23;;;;;;;18.98;14.38;;;16.50;99.90;;;;;;8400916;28;20085;-82
2023/08/24 02:36:23;;;;;;;19.05;15.82;;;16.40;99.90;;;;;;8398560;28;20020;-82
2023/08/24 02:40:24;;;;;;;20.50;16.55;;;16.40;99.90;;;;;;8413505;28;20024;-82
2023/08/24 02:44:24;;;;;;;20.80;14.43;;;16.30;99.90;;;;;;8404510;28;20034;-83
2023/08/24 02:48:25;;;;;;;23.50;16.88;;;16.30;99.90;;;;;;8407768;28;20051;-82
2023/08/24 02:52:25;;;;;;;20.00;16.05;;;16.20;99.90;;;;;;8407413;28;20089;-83
2023/08/24 02:56:26;;;;;;;24.58;18.60;;;16.20;99.90;;;;;;8407403;28;20095;-83
2023/08/24 03:00:26;;;;;;;22.83;16.73;;;16.10;99.90;;;;;;8410403;28;20024;-83
2023/08/24 03:04:27;;;;;;;17.50;14.52;;;16.20;99.90;;;;;;8420548;28;20039;-83
2023/08/24 03:08:31;;;;;;;21.88;16.88;;;16.20;99.90;;;;;;8402692;28;20123;-82
2023/08/24 03:12:32;;;;;;;17.80;14.57;;;16.10;99.90;;;;;;8415348;28;20119;-83
2023/08/24 03:16:33;;;;;;;20.05;16.20;;;16.20;99.90;;;;;;8406908;28;20442;-82
2023/08/24 03:20:34;;;;;;;21.80;17.17;;;16.00;99.90;;;;;;8404044;28;20103;-82
2023/08/24 03:24:34;;;;;;;20.67;15.13;;;16.00;99.90;;;;;;8411485;28;20077;-83
2023/08/24 03:28:35;;;;;;;25.25;17.38;;;15.90;99.90;;;;;;8428540;28;20020;-83
2023/08/24 03:32:35;;;;;;;20.15;16.00;;;15.80;99.90;;;;;;8408982;28;20024;-84
2023/08/24 03:36:37;;;;;;;20.58;16.00;;;15.90;99.90;;;;;;8410665;28;20031;-83
2023/08/24 03:40:38;;;;;;;21.88;16.50;;;15.90;99.90;;;;;;8403639;28;20094;-82
2023/08/24 03:44:39;;;;;;;24.05;19.02;;;15.80;99.90;;;;;;8423203;28;20381;-82
2023/08/24 03:48:39;;;;;;;22.10;17.38;;;15.80;99.90;;;;;;8411534;28;20032;-82
2023/08/24 03:52:40;;;;;;;24.55;19.10;;;15.90;99.90;;;;;;8397116;28;20027;-82
2023/08/24 03:56:40;;;;;;;24.98;17.00;;;15.80;99.90;;;;;;8399122;28;20522;-82
2023/08/24 04:00:41;;;;;;;30.30;18.85;;;15.80;99.90;;;;;;8403347;28;20020;-82
2023/08/24 04:04:42;;;;;;;21.05;16.42;;;15.80;99.90;;;;;;8409983;28;20039;-83
2023/08/24 04:08:42;;;;;;;18.95;13.57;;;15.70;99.90;;;;;;8402646;28;20028;-83
2023/08/24 04:12:43;;;;;;;18.55;13.15;;;15.90;99.90;;;;;;8425804;28;20031;-83
2023/08/24 04:16:43;;;;;;;17.80;14.98;;;16.00;99.90;;;;;;8409844;28;20066;-83
2023/08/24 04:20:44;;;;;;;17.70;15.32;;;15.70;99.90;;;;;;8403689;28;20077;-85
2023/08/24 04:24:44;;;;;;;24.63;17.85;;;15.70;99.90;;;;;;8389089;28;20102;-83
2023/08/24 04:28:45;;;;;;;18.67;16.08;;;15.70;99.90;;;;;;8428874;28;20032;-83
2023/08/24 04:32:45;;;;;;;22.55;17.13;;;15.70;99.90;;;;;;8401246;28;20521;-83
2023/08/24 04:36:46;;;;;;;22.45;17.05;;;15.60;99.90;;;;;;8398039;28;20028;-84
2023/08/24 04:40:50;;;;;;;21.08;17.90;;;15.70;99.90;;;;;;8390953;28;20016;-84
2023/08/24 04:44:51;;;;;;;19.27;16.77;;;15.70;99.90;;;;;;8394218;28;20028;-84
2023/08/24 04:48:51;;;;;;;18.45;15.57;;;15.80;99.90;;;;;;8422569;28;20024;-83
2023/08/24 04:52:52;;;;;;;18.15;15.73;;;15.80;99.90;;;;;;8412837;28;20416;-83
2023/08/24 04:56:52;;;;;;;18.92;14.43;;;15.80;99.90;;;;;;8403331;28;20012;-84
2023/08/24 05:00:55;;;;;;;16.60;13.57;;;15.80;99.90;;;;;;8421075;28;20087;-83
2023/08/24 05:04:55;;;;;;;18.52;14.27;;;15.90;99.90;;;;;;8388801;28;20032;-83
2023/08/24 05:08:56;;;;;;;16.85;15.07;;;15.90;99.90;;;;;;8403013;28;20488;-83
2023/08/24 05:12:57;;;;;;;15.50;13.73;;;16.10;99.90;;;;;;8408531;28;20070;-84
2023/08/24 05:16:57;;;;;;;16.88;15.05;;;16.40;99.90;;;;;;8412766;28;20502;-84
2023/08/24 05:20:58;;;;;;;17.52;15.63;;;16.80;99.90;;;;;;8426502;28;20024;-85
2023/08/24 05:24:58;;;;;;;16.33;14.63;;;17.20;99.90;;;;;;8402441;28;20119;-83
2023/08/24 05:28:59;;;;;;;16.67;13.73;;;17.60;99.90;;;;;;8423385;28;20020;-84
2023/08/24 05:32:59;;;;;;;15.13;13.52;;;17.90;99.90;;;;;;8407480;28;20026;-84
2023/08/24 05:37:00;;;;;;;16.05;13.30;;;18.10;99.90;;;;;;8415313;28;20081;-85
2023/08/24 05:41:00;;;;;;;15.18;13.18;;;18.10;99.90;;;;;;8407731;28;20016;-83
2023/08/24 05:45:01;;;;;;;14.82;13.38;;;18.30;99.90;;;;;;8393154;28;20403;-85
2023/08/24 05:49:02;;;;;;;17.45;13.15;;;18.40;99.90;;;;;;8394225;28;20104;-84
2023/08/24 05:53:03;;;;;;;15.73;13.40;;;18.70;99.90;;;;;;8407320;28;20035;-83
2023/08/24 05:57:04;;;;;;;14.93;13.15;;;18.80;99.90;;;;;;8393301;28;20058;-84
2023/08/24 06:01:05;;;;;;;17.65;13.40;;;18.60;99.90;;;;;;8393863;28;20022;-83
2023/08/24 06:05:07;;;;;;;14.80;13.30;;;18.70;99.90;;;;;;8401234;28;20485;-83
2023/08/24 06:09:08;;;;;;;14.15;12.63;;;19.00;99.90;;;;;;8394214;28;20051;-84
2023/08/24 06:13:08;;;;;;;18.25;12.25;;;19.60;99.90;;;;;;8406298;28;20434;-83
2023/08/24 06:17:09;;;;;;;12.75;11.07;;;20.40;99.90;;;;;;8407049;28;20016;-83
2023/08/24 06:21:09;;;;;;;11.77;10.32;;;20.50;99.90;;;;;;8409556;28;20407;-84
2023/08/24 06:25:10;;;;;;;12.43;10.63;;;20.80;99.90;;;;;;8406506;28;20035;-84
2023/08/24 06:29:11;;;;;;;12.10;10.65;;;21.10;99.90;;;;;;8406458;28;20035;-84
2023/08/24 06:33:11;;;;;;;11.63;10.48;;;21.60;99.90;;;;;;8418477;28;20028;-84
2023/08/24 06:37:12;;;;;;;15.23;10.43;;;21.60;99.90;;;;;;8421363;28;20054;-83
2023/08/24 06:41:13;;;;;;;11.77;10.57;;;22.00;99.90;;;;;;8393038;28;20047;-84
2023/08/24 06:45:14;;;;;;;14.18;10.15;;;22.70;99.90;;;;;;8413626;28;20021;-85
2023/08/24 06:49:14;;;;;;;12.02;9.27;;;23.60;99.90;;;;;;8392141;28;20057;-84
2023/08/24 06:53:15;;;;;;;12.82;8.93;;;24.10;99.90;;;;;;8420328;28;20086;-84
2023/08/24 06:57:15;;;;;;;10.13;9.13;;;24.70;99.90;;;;;;8406055;28;20557;-84
2023/08/24 07:01:16;;;;;;;10.05;9.00;;;25.10;99.90;;;;;;8400159;28;20511;-84
2023/08/24 07:05:20;;;;;;;9.38;7.80;;;25.60;99.90;;;;;;8407784;28;20035;-84
2023/08/24 07:09:21;;;;;;;11.85;8.25;;;26.50;99.90;;;;;;8412660;28;20088;-85
2023/08/24 07:13:21;;;;;;;10.82;8.30;;;27.00;99.90;;;;;;8408717;28;20020;-84
2023/08/24 07:17:22;;;;;;;9.63;7.78;;;27.40;99.90;;;;;;8423482;28;20473;-84
2023/08/24 07:21:22;;;;;;;13.93;8.07;;;27.50;99.90;;;;;;8395496;28;20077;-84
2023/08/24 07:25:23;;;;;;;9.68;7.40;;;27.80;99.90;;;;;;8407234;28;20019;-84
2023/08/24 07:29:24;;;;;;;12.13;7.95;;;28.10;99.90;;;;;;8430379;28;20016;-84
2023/08/24 07:33:24;;;;;;;8.75;7.85;;;27.70;99.90;;;;;;8403674;28;20024;-84
2023/08/24 07:37:28;;;;;;;12.52;7.95;;;27.40;99.90;;;;;;8401942;28;20016;-85
2023/08/24 07:41:29;;;;;;;11.60;7.88;;;27.40;99.90;;;;;;8432220;28;20085;-83
2023/08/24 07:45:29;;;;;;;10.80;7.65;;;28.50;99.90;;;;;;8414457;28;20028;-85
2023/08/24 07:49:31;;;;;;;10.30;8.02;;;28.70;99.90;;;;;;8414222;28;20045;-84
2023/08/24 07:53:32;;;;;;;10.52;7.78;;;28.90;99.90;;;;;;8429676;28;20031;-84
2023/08/24 07:57:34;;;;;;;7.80;6.63;;;28.90;99.90;;;;;;8411202;28;20492;-84
2023/08/24 08:01:34;;;;;;;7.60;6.90;;;28.70;99.90;;;;;;8413940;28;20070;-84
2023/08/24 08:05:35;;;;;;;12.00;7.28;;;28.10;99.90;;;;;;8404862;28;20043;-84
2023/08/24 08:09:38;;;;;;;12.88;7.80;;;27.70;99.90;;;;;;8420502;28;20642;-84
2023/08/24 08:13:39;;;;;;;9.05;7.05;;;27.60;99.90;;;;;;8398871;28;20035;-84
2023/08/24 08:17:40;;;;;;;11.23;7.53;;;27.60;99.90;;;;;;8400352;28;20028;-84
2023/08/24 08:21:40;;;;;;;10.30;7.57;;;28.10;99.90;;;;;;8410882;28;20028;-84
2023/08/24 08:25:42;;;;;;;12.85;7.38;;;28.70;99.90;;;;;;8408331;28;20024;-85
2023/08/24 08:29:42;;;;;;;42.90;11.00;;;29.50;99.90;;;;;;8417879;28;20024;-85
2023/08/24 08:33:43;;;;;;;32.28;10.15;;;29.70;99.90;;;;;;8406392;28;20051;-84
2023/08/24 08:37:44;;;;;;;7.93;6.45;;;29.80;99.90;;;;;;8403841;28;20052;-85
2023/08/24 08:41:46;;;;;;;8.77;6.60;;;30.20;99.90;;;;;;8403805;28;20027;-85
2023/08/24 08:45:47;;;;;;;11.15;7.00;;;30.30;99.90;;;;;;8401748;28;20546;-85
2023/08/24 08:49:49;;;;;;;12.32;7.00;;;30.60;99.90;;;;;;8393281;28;20098;-85
2023/08/24 08:53:49;;;;;;;10.10;6.75;;;30.90;99.90;;;;;;8403340;28;20024;-85
2023/08/24 08:57:52;;;;;;;9.65;6.57;;;31.30;99.90;;;;;;8400253;28;20079;-85
2023/08/24 09:01:53;;;;;;;12.55;6.95;;;31.70;99.90;;;;;;8403266;28;20036;-85
2023/08/24 09:05:53;;;;;;;11.20;7.43;;;31.90;99.90;;;;;;8396866;28;20032;-85
2023/08/24 09:09:54;;;;;;;11.13;7.20;;;31.70;99.90;;;;;;8428301;28;20031;-85
2023/08/24 09:13:54;;;;;;;8.70;6.55;;;31.90;99.90;;;;;;8411262;28;20027;-85
2023/08/24 09:17:56;;;;;;;10.38;6.30;;;31.80;99.90;;;;;;8400744;28;20491;-84
2023/08/24 09:22:01;;;;;;;8.60;6.75;;;32.20;99.90;;;;;;8402751;28;20020;-85
2023/08/24 09:26:02;;;;;;;8.05;6.32;;;32.30;99.90;;;;;;8429425;28;20400;-85
2023/08/24 09:30:03;;;;;;;10.30;7.03;;;32.40;99.90;;;;;;8428953;28;20043;-85
2023/08/24 09:34:04;;;;;;;8.07;7.00;;;32.60;99.90;;;;;;8396782;28;20086;-85
2023/08/24 09:38:23;;;;;;;9.82;6.88;;;32.80;99.90;;;;;;8396401;28;20028;-85
2023/08/24 09:42:27;;;;;;;9.32;6.72;;;33.00;99.90;;;;;;8426038;28;20078;-84
2023/08/24 09:46:27;;;;;;;10.52;7.30;;;33.10;99.90;;;;;;8408338;28;20016;-86
2023/08/24 09:50:28;;;;;;;10.00;6.28;;;33.10;99.90;;;;;;8401960;28;20020;-84
2023/08/24 09:54:31;;;;;;;10.52;7.28;;;32.70;99.90;;;;;;8407349;28;20089;-85
2023/08/24 09:58:32;;;;;;;10.45;7.25;;;32.40;99.90;;;;;;8422001;28;20621;-84
2023/08/24 10:02:36;;;;;;;12.20;6.85;;;32.40;99.90;;;;;;8391765;28;20039;-85
2023/08/24 10:06:38;;;;;;;10.13;6.82;;;32.60;99.90;;;;;;8395460;28;20048;-84
2023/08/24 10:10:41;;;;;;;8.77;7.20;;;32.70;99.90;;;;;;8399640;28;20020;-85
2023/08/24 10:14:52;;;;;;;8.63;7.28;;;33.00;99.90;;;;;;8419607;28;20033;-85
2023/08/24 10:18:53;;;;;;;7.55;6.85;;;33.10;99.90;;;;;;8393113;28;20024;-85
2023/08/24 10:22:55;;;;;;;11.32;7.53;;;33.60;99.90;;;;;;8408458;28;20046;-85
2023/08/24 10:26:57;;;;;;;10.10;7.10;;;33.80;99.90;;;;;;8419553;28;20059;-86
2023/08/24 10:30:59;;;;;;;9.68;6.45;;;34.20;99.90;;;;;;8411294;28;20024;-85
2023/08/24 10:35:00;;;;;;;10.38;6.93;;;34.90;99.90;;;;;;8416440;28;20020;-86
2023/08/24 10:39:06;;;;;;;10.82;7.28;;;34.60;99.90;;;;;;8406678;28;20028;-87
2023/08/24 10:43:07;;;;;;;10.15;7.15;;;34.30;99.90;;;;;;8400001;28;20020;-84
2023/08/24 10:47:12;;;;;;;10.50;6.97;;;34.00;99.90;;;;;;8392808;28;20682;-84
2023/08/24 10:51:48;;;;;;;9.38;7.25;;;35.00;99.90;;;;;;8396652;28;20032;-85
2023/08/24 10:55:42;;;;;;;10.80;7.47;;;35.00;99.90;;;;;;8413879;28;20063;-85
2023/08/24 10:59:43;;;;;;;8.25;6.40;;;35.50;99.90;;;;;;8418791;28;20075;-85
2023/08/24 11:03:59;;;;;;;7.47;6.78;;;36.00;99.90;;;;;;8413207;28;20192;-85
2023/08/24 11:08:04;;;;;;;10.25;6.55;;;36.50;99.90;;;;;;8420265;28;20047;-85
2023/08/24 11:12:05;;;;;;;12.68;7.45;;;37.30;99.90;;;;;;8407041;28;20111;-85
2023/08/24 11:16:09;;;;;;;8.52;6.60;;;37.70;99.90;;;;;;8407371;28;20510;-85
2023/08/24 11:20:10;;;;;;;7.07;6.35;;;38.10;96.50;;;;;;8426233;28;20023;-85
2023/08/24 11:24:17;;;;;;;9.88;7.32;;;38.00;96.80;;;;;;8419023;28;20083;-86
2023/08/24 11:28:19;;;;;;;10.85;6.90;;;38.40;96.50;;;;;;8426892;28;20480;-85
2023/08/24 11:32:20;;;;;;;9.88;7.10;;;38.10;96.10;;;;;;8414577;28;20419;-84
2023/08/24 11:36:21;;;;;;;11.10;6.70;;;37.40;95.60;;;;;;8403217;28;20067;-85
2023/08/24 11:40:26;;;;;;;8.70;6.38;;;37.10;97.10;;;;;;8410548;28;20116;-85
2023/08/24 11:44:28;;;;;;;8.65;6.25;;;37.80;93.80;;;;;;8427464;28;20107;-86
2023/08/24 11:48:30;;;;;;;13.20;6.55;;;38.50;93.20;;;;;;8423994;28;20028;-85
2023/08/24 11:52:34;;;;;;;12.07;6.55;;;39.00;91.70;;;;;;8429860;28;20069;-85
2023/08/24 11:56:42;;;;;;;10.10;6.40;;;39.70;89.90;;;;;;8403669;28;20069;-86
2023/08/24 12:00:44;;;;;;;10.45;6.20;;;39.40;90.70;;;;;;8405449;28;20120;-87
2023/08/24 12:08:48;;;;;;;10.25;6.88;;;39.30;88.00;;;;;;8228267;28;20130;-82
2023/08/24 12:12:49;;;;;;;9.48;6.22;;;38.30;90.20;;;;;;8297510;28;20630;-81
2023/08/24 12:16:53;;;;;;;11.32;6.88;;;38.60;88.90;;;;;;8239627;28;20076;-81
2023/08/24 12:20:53;;;;;;;10.65;6.07;;;39.20;89.20;;;;;;8324209;28;20088;-81
2023/08/24 12:24:54;;;;;;;7.20;5.53;;;39.60;86.40;;;;;;8258476;28;20397;-82
2023/08/24 12:29:00;;;;;;;10.88;6.32;;;39.90;84.20;;;;;;8242318;28;20042;-82
2023/08/24 12:33:01;;;;;;;10.10;6.25;;;40.70;84.00;;;;;;8244297;28;20023;-81
2023/08/24 12:37:02;;;;;;;10.55;6.03;;;41.00;80.20;;;;;;8313372;28;20034;-84
2023/08/24 12:41:02;;;;;;;12.55;6.00;;;40.40;74.50;;;;;;8321205;28;20036;-81
2023/08/24 12:45:04;;;;;;;11.88;5.72;;;40.10;77.00;;;;;;8245576;28;20148;-81
2023/08/24 12:49:05;;;;;;;12.10;5.70;;;38.20;80.50;;;;;;8320929;28;20046;-81
2023/08/24 12:53:06;;;;;;;9.50;5.78;;;37.50;84.60;;;;;;8328526;28;20516;-81
2023/08/24 12:57:06;;;;;;;9.30;5.05;;;38.70;78.40;;;;;;8256956;28;20027;-82
2023/08/24 13:01:07;;;;;;;6.50;4.53;;;39.80;78.30;;;;;;8253571;28;20041;-81
2023/08/24 13:05:08;;;;;;;15.60;5.55;;;40.70;77.60;;;;;;8312454;28;20478;-81
2023/08/24 13:09:09;;;;;;;10.85;4.75;;;40.20;68.10;;;;;;8315697;28;20027;-82
2023/08/24 13:13:09;;;;;;;16.80;4.53;;;39.50;74.70;;;;;;8243693;28;20061;-82
2023/08/24 13:17:10;;;;;;;14.88;5.00;;;40.10;69.80;;;;;;8255463;28;20023;-81
2023/08/24 13:21:11;;;;;;;16.48;4.13;;;41.50;66.50;;;;;;8254879;28;20080;-83
2023/08/24 13:25:11;;;;;;;16.42;4.15;;;41.90;59.80;;;;;;8256534;28;20395;-81
2023/08/24 13:29:12;;;;;;;17.98;3.90;;;41.20;58.90;;;;;;8252457;28;20625;-82
2023/08/24 13:33:12;;;;;;;13.73;4.03;;;41.00;58.40;;;;;;8319317;28;20030;-82
2023/08/24 13:37:13;;;;;;;15.50;4.45;;;41.20;58.10;;;;;;8323298;28;20109;-82
2023/08/24 13:41:13;;;;;;;18.15;4.78;;;41.80;56.30;;;;;;8314684;28;20042;-83
2023/08/24 13:45:14;;;;;;;16.65;4.90;;;42.60;58.70;;;;;;8256393;28;20069;-82
2023/08/24 13:49:14;;;;;;;17.02;4.40;;;43.20;55.90;;;;;;8250901;28;20029;-82
2023/08/24 13:53:15;;;;;;;12.25;4.68;;;43.00;55.40;;;;;;8252563;28;20105;-82
2023/08/24 13:57:15;;;;;;;19.23;5.25;;;43.30;57.60;;;;;;8309942;28;20053;-82
2023/08/24 14:01:16;;;;;;;16.65;4.80;;;44.60;52.70;;;;;;8320323;28;20058;-83
2023/08/24 14:05:16;;;;;;;18.35;5.25;;;45.40;50.90;;;;;;8243291;28;20434;-82
2023/08/24 14:09:17;;;;;;;15.35;4.72;;;45.40;50.90;;;;;;8321206;28;20122;-83
2023/08/24 14:13:18;;;;;;;19.48;4.70;;;44.90;48.80;;;;;;8317598;28;20034;-82
2023/08/24 14:17:18;;;;;;;14.65;4.68;;;44.70;48.60;;;;;;8311553;28;20030;-82
2023/08/24 14:21:23;;;;;;;22.73;5.40;;;45.00;49.10;;;;;;8249436;28;20027;-82
2023/08/24 14:25:24;;;;;;;18.77;5.07;;;45.30;49.50;;;;;;8255326;28;20034;-83
2023/08/24 14:29:24;;;;;;;18.05;5.13;;;45.80;47.50;;;;;;8252448;28;20046;-82
2023/08/24 14:33:25;;;;;;;13.27;4.78;;;45.20;49.40;;;;;;8326797;28;20030;-82
2023/08/24 14:37:26;;;;;;;17.70;5.38;;;45.80;47.00;;;;;;8314442;28;20027;-82
2023/08/24 14:41:26;;;;;;;24.40;5.40;;;46.50;45.60;;;;;;8323012;28;20486;-82
2023/08/24 14:45:27;;;;;;;21.70;4.75;;;46.40;47.80;;;;;;8319189;28;20457;-82
2023/08/24 14:49:28;;;;;;;17.85;4.72;;;46.70;43.30;;;;;;8243496;28;20041;-82
2023/08/24 14:53:31;;;;;;;22.33;5.07;;;45.80;44.30;;;;;;8305567;28;20088;-81
2023/08/24 14:57:32;;;;;;;20.35;4.90;;;45.30;46.30;;;;;;8315293;28;20411;-81
2023/08/24 15:01:32;;;;;;;14.15;4.60;;;45.70;42.70;;;;;;8311571;28;20066;-82
2023/08/24 15:05:43;;;;;;;16.60;5.20;;;45.60;42.70;;;;;;8314795;28;20034;-82
2023/08/24 15:09:44;;;;;;;19.00;5.18;;;45.20;43.40;;;;;;8247527;28;20018;-83
2023/08/24 15:13:47;;;;;;;21.92;5.18;;;44.50;44.10;;;;;;8307145;28;20030;-82
2023/08/24 15:17:47;;;;;;;18.48;4.85;;;43.70;44.50;;;;;;8320190;28;20030;-81
2023/08/24 15:21:48;;;;;;;19.83;5.05;;;42.10;47.40;;;;;;8254100;28;20034;-81
2023/08/24 15:25:48;;;;;;;16.35;4.68;;;40.80;49.20;;;;;;8311297;28;20030;-82
2023/08/24 15:29:51;;;;;;;17.80;4.90;;;40.90;48.40;;;;;;8321143;28;20023;-81
2023/08/24 15:33:51;;;;;;;16.90;4.75;;;41.80;49.80;;;;;;8312762;28;20483;-82
2023/08/24 15:37:52;;;;;;;22.00;5.10;;;42.40;50.40;;;;;;8309127;28;20035;-81
2023/08/24 15:41:52;;;;;;;21.15;5.35;;;40.70;52.20;;;;;;8239398;28;20487;-81
2023/08/24 15:45:53;;;;;;;21.08;5.40;;;40.40;51.70;;;;;;8248241;28;20031;-81
2023/08/24 15:49:53;;;;;;;23.63;5.43;;;39.20;56.30;;;;;;8247521;28;20462;-81
2023/08/24 15:53:54;;;;;;;26.50;5.10;;;37.80;59.60;;;;;;8322009;28;20258;-81
2023/08/24 15:57:55;;;;;;;18.75;5.38;;;36.30;62.40;;;;;;8281898;28;20443;-82
2023/08/24 16:01:56;;;;;;;16.98;5.28;;;35.20;66.60;;;;;;8345126;28;20098;-83
2023/08/24 16:05:59;;;;;;;16.98;5.43;;;34.90;65.40;;;;;;8271525;28;20698;-82
2023/08/24 16:10:00;;;;;;;16.10;5.07;;;34.70;68.40;;;;;;8347025;28;20037;-81
2023/08/24 16:14:02;;;;;;;13.13;4.95;;;34.60;71.90;;;;;;8313141;28;20062;-81
2023/08/24 16:18:03;;;;;;;22.52;4.90;;;34.30;74.80;;;;;;8308855;28;20033;-81
2023/08/24 16:22:05;;;;;;;20.10;5.55;;;33.80;75.90;;;;;;8252054;28;20022;-81
2023/08/24 16:26:06;;;;;;;22.63;5.43;;;33.20;79.10;;;;;;8245024;28;20110;-81
2023/08/24 16:30:07;;;;;;;25.63;5.82;;;32.70;79.70;;;;;;8321338;28;20022;-79
2023/08/24 16:34:08;;;;;;;16.20;5.28;;;32.10;87.30;;;;;;8313620;28;20049;-79
2023/08/24 16:38:08;;;;;;;28.38;5.90;;;31.50;87.40;;;;;;8305739;28;20026;-80
2023/08/24 16:42:09;;;;;;;21.27;5.40;;;30.90;88.70;;;;;;8239566;28;20027;-80
2023/08/24 16:46:09;;;;;;;21.35;5.85;;;30.60;92.10;;;;;;8316389;28;20444;-81
2023/08/24 16:50:10;;;;;;;20.10;5.22;;;30.30;93.10;;;;;;8306510;28;20018;-79
2023/08/24 16:54:10;;;;;;;16.08;5.38;;;30.00;95.40;;;;;;8305580;28;20075;-80
2023/08/24 16:58:11;;;;;;;16.00;5.28;;;29.50;97.20;;;;;;8236990;28;20541;-81
2023/08/24 17:02:12;;;;;;;18.65;4.97;;;29.00;98.40;;;;;;8237205;28;20025;-80
2023/08/24 17:06:12;;;;;;;22.15;6.22;;;28.80;99.90;;;;;;8245015;28;20129;-78
2023/08/24 17:10:13;;;;;;;18.55;6.03;;;28.50;99.90;;;;;;8316366;28;20126;-79
2023/08/24 17:14:13;;;;;;;20.27;5.65;;;28.30;99.90;;;;;;8249416;28;20027;-80
2023/08/24 17:18:14;;;;;;;18.23;5.32;;;28.30;99.90;;;;;;8305911;28;20121;-80
2023/08/24 17:22:14;;;;;;;19.67;5.45;;;28.50;99.90;;;;;;8254520;28;20049;-79
2023/08/24 17:26:15;;;;;;;20.85;5.28;;;28.30;99.90;;;;;;8236102;28;20022;-79
2023/08/24 17:30:15;;;;;;;16.42;5.45;;;27.80;99.90;;;;;;8303759;28;20142;-78
2023/08/24 17:34:16;;;;;;;15.65;5.53;;;27.60;99.90;;;;;;8230006;28;20060;-79
2023/08/24 17:38:16;;;;;;;17.05;5.53;;;27.50;99.90;;;;;;8299161;28;20022;-80
2023/08/24 17:42:17;;;;;;;16.48;6.40;;;27.60;99.90;;;;;;8248055;28;20493;-79
2023/08/24 17:46:17;;;;;;;13.98;5.72;;;27.70;99.90;;;;;;8307699;28;20086;-79
2023/08/24 17:50:19;;;;;;;14.05;5.88;;;27.80;99.90;;;;;;8318135;28;20026;-79
2023/08/24 17:54:21;;;;;;;18.02;6.38;;;27.70;99.90;;;;;;8297154;28;20022;-80
2023/08/24 17:58:22;;;;;;;18.17;6.32;;;27.50;99.90;;;;;;8311561;28;20379;-79
2023/08/24 18:02:23;;;;;;;17.05;6.40;;;27.20;99.90;;;;;;8293295;28;20027;-78
2023/08/24 18:06:23;;;;;;;15.70;6.10;;;27.10;99.90;;;;;;8332707;22;20057;-80
2023/08/24 18:10:24;;;;;;;11.90;5.63;;;27.00;99.90;;;;;;8270838;28;20025;-81
2023/08/24 18:14:25;;;;;;;15.20;6.10;;;27.00;99.90;;;;;;8349067;28;20029;-80
2023/08/24 18:18:25;;;;;;;17.98;6.18;;;26.80;99.90;;;;;;8414763;28;20035;-79
2023/08/24 18:22:26;;;;;;;15.63;6.57;;;26.60;99.90;;;;;;8408850;28;20748;-79
2023/08/24 18:26:26;;;;;;;18.55;6.85;;;26.30;99.90;;;;;;8427088;28;20043;-79
2023/08/24 18:30:27;;;;;;;13.88;6.25;;;26.00;99.90;;;;;;8407523;28;20058;-79
2023/08/24 18:34:27;;;;;;;12.85;6.20;;;25.70;99.90;;;;;;8408869;28;20016;-78
2023/08/24 18:38:28;;;;;;;16.88;6.35;;;25.80;99.90;;;;;;8419770;28;20056;-79
2023/08/24 18:42:28;;;;;;;19.40;6.10;;;25.60;99.90;;;;;;8403529;28;20426;-78
2023/08/24 18:46:29;;;;;;;13.82;6.43;;;25.40;99.90;;;;;;8395101;28;20036;-79
2023/08/24 18:50:29;;;;;;;14.40;5.90;;;25.30;99.90;;;;;;8390893;28;20089;-79
2023/08/24 18:54:30;;;;;;;17.63;6.35;;;25.00;99.90;;;;;;8420912;28;20032;-79
2023/08/24 18:58:31;;;;;;;13.32;5.82;;;25.00;99.90;;;;;;8404145;28;20593;-78
2023/08/24 19:02:31;;;;;;;15.05;6.07;;;25.10;99.90;;;;;;8402456;28;20034;-79
2023/08/24 19:06:32;;;;;;;14.35;5.75;;;25.00;99.90;;;;;;8409850;28;20036;-79
2023/08/24 19:10:33;;;;;;;18.15;6.18;;;24.90;99.90;;;;;;8403150;28;20016;-78
2023/08/24 19:14:35;;;;;;;18.55;3.35;;;24.90;99.90;;;;;;8397250;28;20039;-77
2023/08/24 19:18:36;;;;;;;16.92;2.63;;;24.00;99.90;;;;;;8416472;28;20077;-77
2023/08/24 19:22:36;;;;;;;15.27;3.83;;;22.90;99.90;;;;;;8429441;28;20396;-77
2023/08/24 19:26:37;;;;;;;20.98;4.60;;;21.40;99.90;;;;;;8423702;28;20488;-82
2023/08/24 19:30:38;;;;;;;12.80;3.88;;;20.40;99.90;;;;;;8412513;28;20023;-81
2023/08/24 19:54:27;;;;;;;9.13;3.47;;;19.40;99.90;;;;;;8415200;28;20043;-79
2023/08/24 19:58:27;;;;;;;10.48;3.28;;;19.30;99.90;;;;;;8386915;28;20024;-80
2023/08/24 20:02:28;;;;;;;12.07;2.92;;;19.10;99.90;;;;;;8390455;28;20408;-80
2023/08/24 20:06:28;;;;;;;0.00;0.00;;;19.00;99.90;;;;;;8393667;28;20028;-80
2023/08/24 20:10:29;;;;;;;0.00;0.00;;;19.20;99.90;;;;;;8429966;28;20074;-77
2023/08/24 20:14:29;;;;;;;0.17;0.17;;;19.20;99.90;;;;;;8411871;28;20032;-79
2023/08/24 20:18:30;;;;;;;0.38;0.38;;;19.20;99.90;;;;;;8411722;28;20020;-79
2023/08/24 20:22:30;;;;;;;0.08;0.08;;;19.10;99.90;;;;;;8411582;28;20112;-80
2023/08/24 20:26:31;;;;;;;0.10;0.10;;;18.90;99.90;;;;;;8412018;28;20051;-80
2023/08/24 20:30:31;;;;;;;0.00;0.00;;;19.00;99.90;;;;;;8411161;28;20021;-79
2023/08/24 20:34:32;;;;;;;0.00;0.00;;;18.80;99.90;;;;;;8411032;28;20039;-80
2023/08/24 20:38:32;;;;;;;0.13;0.13;;;19.00;99.90;;;;;;8405962;28;20021;-80
2023/08/24 20:42:33;;;;;;;0.00;0.00;;;19.20;99.90;;;;;;8407781;28;20030;-79
2023/08/24 20:46:33;;;;;;;0.00;0.00;;;19.10;99.90;;;;;;8411089;28;20081;-79
2023/08/24 20:50:34;;;;;;;0.28;0.28;;;19.20;99.90;;;;;;8411938;28;20035;-79
2023/08/24 20:54:35;;;;;;;0.00;0.00;;;19.20;99.90;;;;;;8428498;28;20027;-79
2023/08/24 20:58:36;;;;;;;0.00;0.00;;;19.30;99.90;;;;;;8410568;28;20460;-79
2023/08/24 21:02:38;;;;;;;0.08;0.08;;;19.30;99.90;;;;;;8408046;28;20161;-80